sensor_id;sensor_type;location;lat;lon;timestamp;pressure;altitude;pressure_sealevel;temperature;humidity
20710;BME280;10516;51.518;9.864;2024-01-16T00:02:20;97615.31;;;0.20;85.31
20710;BME280;10516;51.518;9.864;2024-01-16T00:04:46;97619.63;;;0.15;85.24
20710;BME280;10516;51.518;9.864;2024-01-16T00:07:11;97618.94;;;0.26;85.40
20710;BME280;10516;51.518;9.864;2024-01-16T00:09:36;97621.69;;;0.31;85.16
20710;BME280;10516;51.518;9.864;2024-01-16T00:12:02;97614.97;;;0.17;85.64
20710;BME280;10516;51.518;9.864;2024-01-16T00:14:29;97621.56;;;0.26;85.27
20710;BME280;10516;51.518;9.864;2024-01-16T00:16:54;97618.81;;;0.14;85.27
20710;BME280;10516;51.518;9.864;2024-01-16T00:19:19;97642.59;;;0.19;85.73
20710;BME280;10516;51.518;9.864;2024-01-16T00:21:45;97632.03;;;0.26;84.97
20710;BME280;10516;51.518;9.864;2024-01-16T00:24:16;97637.34;;;0.19;85.34
20710;BME280;10516;51.518;9.864;2024-01-16T00:26:42;97637.06;;;0.27;85.00
20710;BME280;10516;51.518;9.864;2024-01-16T00:29:08;97650.47;;;0.19;85.52
20710;BME280;10516;51.518;9.864;2024-01-16T00:31:38;97642.31;;;0.27;84.83
20710;BME280;10516;51.518;9.864;2024-01-16T00:34:03;97638.16;;;0.20;85.14
20710;BME280;10516;51.518;9.864;2024-01-16T00:36:29;97655.44;;;0.27;84.86
20710;BME280;10516;51.518;9.864;2024-01-16T00:38:54;97651.00;;;0.28;84.57
20710;BME280;10516;51.518;9.864;2024-01-16T00:41:20;97671.94;;;0.34;84.47
20710;BME280;10516;51.518;9.864;2024-01-16T00:43:45;97675.28;;;0.17;85.37
20710;BME280;10516;51.518;9.864;2024-01-16T00:46:11;97658.38;;;0.13;85.34
20710;BME280;10516;51.518;9.864;2024-01-16T00:48:36;97654.91;;;0.19;84.66
20710;BME280;10516;51.518;9.864;2024-01-16T00:51:01;97663.72;;;0.24;84.98
20710;BME280;10516;51.518;9.864;2024-01-16T00:53:27;97661.91;;;0.25;84.81
20710;BME280;10516;51.518;9.864;2024-01-16T00:55:53;97657.28;;;0.20;84.79
20710;BME280;10516;51.518;9.864;2024-01-16T00:58:21;97670.63;;;0.19;84.67
20710;BME280;10516;51.518;9.864;2024-01-16T01:00:46;97682.31;;;0.23;84.57
20710;BME280;10516;51.518;9.864;2024-01-16T01:03:11;97681.50;;;0.22;84.73
20710;BME280;10516;51.518;9.864;2024-01-16T01:05:37;97685.16;;;0.21;84.14
20710;BME280;10516;51.518;9.864;2024-01-16T01:08:03;97682.50;;;0.28;84.25
20710;BME280;10516;51.518;9.864;2024-01-16T01:10:28;97689.00;;;0.19;84.57
20710;BME280;10516;51.518;9.864;2024-01-16T01:12:54;97679.94;;;0.15;84.71
20710;BME280;10516;51.518;9.864;2024-01-16T01:15:20;97698.31;;;0.15;84.73
20710;BME280;10516;51.518;9.864;2024-01-16T01:17:50;97697.50;;;0.14;84.56
20710;BME280;10516;51.518;9.864;2024-01-16T01:20:17;97707.16;;;0.20;84.47
20710;BME280;10516;51.518;9.864;2024-01-16T01:22:43;97689.22;;;0.17;84.49
20710;BME280;10516;51.518;9.864;2024-01-16T01:25:09;97698.91;;;0.17;84.78
20710;BME280;10516;51.518;9.864;2024-01-16T01:27:35;97705.75;;;0.18;84.63
20710;BME280;10516;51.518;9.864;2024-01-16T01:30:01;97700.56;;;0.05;85.47
20710;BME280;10516;51.518;9.864;2024-01-16T01:32:26;97704.16;;;0.17;84.51
20710;BME280;10516;51.518;9.864;2024-01-16T01:34:52;97711.44;;;0.15;85.16
20710;BME280;10516;51.518;9.864;2024-01-16T01:37:18;97709.13;;;0.25;84.31
20710;BME280;10516;51.518;9.864;2024-01-16T01:39:43;97702.72;;;0.21;83.96
20710;BME280;10516;51.518;9.864;2024-01-16T01:42:09;97714.19;;;0.26;84.59
20710;BME280;10516;51.518;9.864;2024-01-16T01:44:35;97713.56;;;0.24;84.22
20710;BME280;10516;51.518;9.864;2024-01-16T01:47:00;97725.88;;;0.30;84.50
20710;BME280;10516;51.518;9.864;2024-01-16T01:49:26;97728.91;;;0.27;84.01
20710;BME280;10516;51.518;9.864;2024-01-16T01:51:52;97729.53;;;0.23;83.98
20710;BME280;10516;51.518;9.864;2024-01-16T01:54:19;97734.38;;;0.26;84.05
20710;BME280;10516;51.518;9.864;2024-01-16T01:56:47;97734.38;;;0.26;83.94
20710;BME280;10516;51.518;9.864;2024-01-16T01:59:13;97737.41;;;0.23;83.94
20710;BME280;10516;51.518;9.864;2024-01-16T02:01:40;97735.59;;;0.23;84.52
20710;BME280;10516;51.518;9.864;2024-01-16T02:04:06;97739.84;;;0.18;84.47
20710;BME280;10516;51.518;9.864;2024-01-16T02:06:32;97746.34;;;0.15;84.57
20710;BME280;10516;51.518;9.864;2024-01-16T02:08:58;97745.06;;;0.24;84.23
20710;BME280;10516;51.518;9.864;2024-01-16T02:11:24;97751.94;;;0.25;84.22
20710;BME280;10516;51.518;9.864;2024-01-16T02:13:50;97758.19;;;0.24;84.13
20710;BME280;10516;51.518;9.864;2024-01-16T02:16:19;97753.59;;;0.20;84.28
20710;BME280;10516;51.518;9.864;2024-01-16T02:18:45;97750.31;;;0.24;84.39
20710;BME280;10516;51.518;9.864;2024-01-16T02:21:11;97747.75;;;0.11;84.08
20710;BME280;10516;51.518;9.864;2024-01-16T02:23:38;97757.81;;;0.21;84.27
20710;BME280;10516;51.518;9.864;2024-01-16T02:26:04;97744.13;;;0.12;84.16
20710;BME280;10516;51.518;9.864;2024-01-16T02:28:29;97768.13;;;0.09;84.07
20710;BME280;10516;51.518;9.864;2024-01-16T02:30:54;97763.47;;;0.18;84.18
20710;BME280;10516;51.518;9.864;2024-01-16T02:33:20;97770.50;;;0.24;83.53
20710;BME280;10516;51.518;9.864;2024-01-16T02:35:45;97780.63;;;0.14;84.11
20710;BME280;10516;51.518;9.864;2024-01-16T02:38:10;97769.50;;;0.18;84.10
20710;BME280;10516;51.518;9.864;2024-01-16T02:40:36;97771.13;;;0.19;84.00
20710;BME280;10516;51.518;9.864;2024-01-16T02:43:01;97779.22;;;0.11;83.92
20710;BME280;10516;51.518;9.864;2024-01-16T02:45:26;97780.47;;;0.09;83.65
20710;BME280;10516;51.518;9.864;2024-01-16T02:47:52;97783.09;;;0.09;83.46
20710;BME280;10516;51.518;9.864;2024-01-16T02:50:17;97791.53;;;0.17;83.66
20710;BME280;10516;51.518;9.864;2024-01-16T02:52:42;97799.78;;;0.21;83.79
20710;BME280;10516;51.518;9.864;2024-01-16T02:55:08;97804.25;;;0.14;83.23
20710;BME280;10516;51.518;9.864;2024-01-16T02:57:34;97799.22;;;0.12;83.56
20710;BME280;10516;51.518;9.864;2024-01-16T02:59:59;97808.69;;;0.20;83.38
20710;BME280;10516;51.518;9.864;2024-01-16T03:02:25;97812.31;;;0.12;83.04
20710;BME280;10516;51.518;9.864;2024-01-16T03:04:50;97803.66;;;0.12;83.10
20710;BME280;10516;51.518;9.864;2024-01-16T03:07:16;97821.88;;;0.00;83.10
20710;BME280;10516;51.518;9.864;2024-01-16T03:09:41;97818.41;;;0.06;83.25
20710;BME280;10516;51.518;9.864;2024-01-16T03:12:06;97823.19;;;0.16;83.31
20710;BME280;10516;51.518;9.864;2024-01-16T03:14:32;97828.84;;;0.19;83.46
20710;BME280;10516;51.518;9.864;2024-01-16T03:17:01;97828.25;;;0.17;82.99
20710;BME280;10516;51.518;9.864;2024-01-16T03:19:27;97835.56;;;0.09;82.92
20710;BME280;10516;51.518;9.864;2024-01-16T03:21:52;97832.09;;;0.15;83.20
20710;BME280;10516;51.518;9.864;2024-01-16T03:24:18;97835.31;;;0.17;82.91
20710;BME280;10516;51.518;9.864;2024-01-16T03:26:45;97836.13;;;0.17;82.89
20710;BME280;10516;51.518;9.864;2024-01-16T03:29:10;97829.28;;;0.10;82.78
20710;BME280;10516;51.518;9.864;2024-01-16T03:31:36;97834.75;;;0.08;82.76
20710;BME280;10516;51.518;9.864;2024-01-16T03:34:01;97838.38;;;0.07;82.48
20710;BME280;10516;51.518;9.864;2024-01-16T03:36:27;97850.25;;;0.10;82.67
20710;BME280;10516;51.518;9.864;2024-01-16T03:38:52;97850.44;;;0.21;82.59
20710;BME280;10516;51.518;9.864;2024-01-16T03:41:18;97853.31;;;0.07;82.43
20710;BME280;10516;51.518;9.864;2024-01-16T03:43:43;97856.31;;;0.17;82.60
20710;BME280;10516;51.518;9.864;2024-01-16T03:46:12;97851.47;;;0.07;83.27
20710;BME280;10516;51.518;9.864;2024-01-16T03:48:37;97851.06;;;0.17;82.93
20710;BME280;10516;51.518;9.864;2024-01-16T03:51:03;97860.34;;;0.19;83.08
20710;BME280;10516;51.518;9.864;2024-01-16T03:53:28;97854.50;;;0.11;83.38
20710;BME280;10516;51.518;9.864;2024-01-16T03:55:53;97863.16;;;0.11;83.36
20710;BME280;10516;51.518;9.864;2024-01-16T03:58:19;97871.25;;;0.10;83.22
20710;BME280;10516;51.518;9.864;2024-01-16T04:00:44;97859.16;;;0.09;83.44
20710;BME280;10516;51.518;9.864;2024-01-16T04:03:09;97869.03;;;0.20;83.79
20710;BME280;10516;51.518;9.864;2024-01-16T04:05:35;97872.84;;;0.17;83.53
20710;BME280;10516;51.518;9.864;2024-01-16T04:08:00;97856.31;;;0.17;83.74
20710;BME280;10516;51.518;9.864;2024-01-16T04:10:26;97867.63;;;0.17;84.45
20710;BME280;10516;51.518;9.864;2024-01-16T04:12:51;97862.38;;;0.17;84.33
20710;BME280;10516;51.518;9.864;2024-01-16T04:15:17;97847.66;;;0.10;84.07
20710;BME280;10516;51.518;9.864;2024-01-16T04:17:42;97849.88;;;0.13;84.16
20710;BME280;10516;51.518;9.864;2024-01-16T04:20:08;97866.38;;;0.26;84.48
20710;BME280;10516;51.518;9.864;2024-01-16T04:22:34;97865.97;;;0.23;84.25
20710;BME280;10516;51.518;9.864;2024-01-16T04:24:59;97864.34;;;0.28;84.54
20710;BME280;10516;51.518;9.864;2024-01-16T04:27:25;97866.31;;;0.39;84.54
20710;BME280;10516;51.518;9.864;2024-01-16T04:29:51;97867.75;;;0.29;84.13
20710;BME280;10516;51.518;9.864;2024-01-16T04:32:16;97864.69;;;0.38;84.20
20710;BME280;10516;51.518;9.864;2024-01-16T04:34:42;97868.72;;;0.47;83.79
20710;BME280;10516;51.518;9.864;2024-01-16T04:37:07;97869.78;;;0.27;84.61
20710;BME280;10516;51.518;9.864;2024-01-16T04:39:32;97871.78;;;0.31;84.42
20710;BME280;10516;51.518;9.864;2024-01-16T04:41:58;97881.47;;;0.31;84.23
20710;BME280;10516;51.518;9.864;2024-01-16T04:44:23;97884.34;;;0.23;84.38
20710;BME280;10516;51.518;9.864;2024-01-16T04:46:48;97883.09;;;0.32;84.96
20710;BME280;10516;51.518;9.864;2024-01-16T04:49:14;97887.75;;;0.30;84.03
20710;BME280;10516;51.518;9.864;2024-01-16T04:51:39;97890.16;;;0.25;83.92
20710;BME280;10516;51.518;9.864;2024-01-16T04:54:04;97891.38;;;0.22;84.03
20710;BME280;10516;51.518;9.864;2024-01-16T04:56:30;97876.66;;;0.28;83.87
20710;BME280;10516;51.518;9.864;2024-01-16T04:58:55;97884.34;;;0.23;84.30
20710;BME280;10516;51.518;9.864;2024-01-16T05:01:20;97881.91;;;0.21;84.40
20710;BME280;10516;51.518;9.864;2024-01-16T05:03:46;97881.31;;;0.26;83.90
20710;BME280;10516;51.518;9.864;2024-01-16T05:06:15;97874.25;;;0.26;83.26
20710;BME280;10516;51.518;9.864;2024-01-16T05:08:41;97867.63;;;0.11;83.20
20710;BME280;10516;51.518;9.864;2024-01-16T05:11:07;97883.34;;;0.17;83.45
20710;BME280;10516;51.518;9.864;2024-01-16T05:13:32;97883.34;;;0.17;83.10
20710;BME280;10516;51.518;9.864;2024-01-16T05:15:57;97878.28;;;0.22;83.14
20710;BME280;10516;51.518;9.864;2024-01-16T05:18:23;97881.91;;;0.21;83.16
20710;BME280;10516;51.518;9.864;2024-01-16T05:20:48;97873.84;;;0.16;83.09
20710;BME280;10516;51.518;9.864;2024-01-16T05:23:13;97872.25;;;0.15;82.96
20710;BME280;10516;51.518;9.864;2024-01-16T05:25:39;97876.06;;;0.19;83.43
20710;BME280;10516;51.518;9.864;2024-01-16T05:28:04;97879.69;;;0.18;83.16
20710;BME280;10516;51.518;9.864;2024-01-16T05:30:30;97877.06;;;0.18;83.37
20710;BME280;10516;51.518;9.864;2024-01-16T05:32:55;97862.97;;;0.13;83.04
20710;BME280;10516;51.518;9.864;2024-01-16T05:35:21;97864.38;;;0.15;83.20
20710;BME280;10516;51.518;9.864;2024-01-16T05:37:46;97871.66;;;0.13;83.54
20710;BME280;10516;51.518;9.864;2024-01-16T05:40:15;97871.66;;;0.20;83.46
20710;BME280;10516;51.518;9.864;2024-01-16T05:42:40;97872.03;;;0.23;83.48
20710;BME280;10516;51.518;9.864;2024-01-16T05:45:06;97871.59;;;0.33;83.62
20710;BME280;10516;51.518;9.864;2024-01-16T05:47:31;97873.81;;;0.29;83.06
20710;BME280;10516;51.518;9.864;2024-01-16T05:49:57;97870.22;;;0.24;83.43
20710;BME280;10516;51.518;9.864;2024-01-16T05:52:23;97871.41;;;0.28;83.76
20710;BME280;10516;51.518;9.864;2024-01-16T05:54:51;97872.41;;;0.27;83.51
20710;BME280;10516;51.518;9.864;2024-01-16T05:57:16;97869.19;;;0.25;83.79
20710;BME280;10516;51.518;9.864;2024-01-16T05:59:43;97875.25;;;0.19;83.61
20710;BME280;10516;51.518;9.864;2024-01-16T06:02:12;97869.19;;;0.25;82.74
20710;BME280;10516;51.518;9.864;2024-01-16T06:04:40;97869.03;;;0.20;83.68
20710;BME280;10516;51.518;9.864;2024-01-16T06:07:05;97867.78;;;0.16;83.46
20710;BME280;10516;51.518;9.864;2024-01-16T06:09:33;97864.56;;;0.20;83.75
20710;BME280;10516;51.518;9.864;2024-01-16T06:11:58;97862.97;;;0.19;83.59
20710;BME280;10516;51.518;9.864;2024-01-16T06:14:23;97868.81;;;0.15;83.71
20710;BME280;10516;51.518;9.864;2024-01-16T06:16:48;97856.53;;;0.15;83.37
20710;BME280;10516;51.518;9.864;2024-01-16T06:19:14;97862.16;;;0.19;83.70
20710;BME280;10516;51.518;9.864;2024-01-16T06:21:41;97869.03;;;0.20;83.31
20710;BME280;10516;51.518;9.864;2024-01-16T06:24:06;97866.41;;;0.13;83.41
20710;BME280;10516;51.518;9.864;2024-01-16T06:26:32;97865.97;;;0.23;82.96
20710;BME280;10516;51.518;9.864;2024-01-16T06:28:58;97867.41;;;0.19;83.26
20710;BME280;10516;51.518;9.864;2024-01-16T06:31:23;97871.44;;;0.15;83.34
20710;BME280;10516;51.518;9.864;2024-01-16T06:33:51;97872.44;;;0.14;83.37
20710;BME280;10516;51.518;9.864;2024-01-16T06:36:16;97870.63;;;0.14;83.46
20710;BME280;10516;51.518;9.864;2024-01-16T06:38:42;97889.00;;;0.08;83.24
20710;BME280;10516;51.518;9.864;2024-01-16T06:41:07;97884.94;;;0.25;83.75
20710;BME280;10516;51.518;9.864;2024-01-16T06:43:33;97881.50;;;0.24;83.69
20710;BME280;10516;51.518;9.864;2024-01-16T06:45:58;97888.16;;;0.27;83.08
20710;BME280;10516;51.518;9.864;2024-01-16T06:48:24;97885.13;;;0.23;83.83
20710;BME280;10516;51.518;9.864;2024-01-16T06:50:50;97891.00;;;0.19;83.75
20710;BME280;10516;51.518;9.864;2024-01-16T06:53:15;97900.66;;;0.25;83.59
20710;BME280;10516;51.518;9.864;2024-01-16T06:55:41;97898.06;;;0.18;83.78
20710;BME280;10516;51.518;9.864;2024-01-16T06:58:06;97889.78;;;0.21;83.71
20710;BME280;10516;51.518;9.864;2024-01-16T07:00:32;97898.25;;;0.23;83.58
20710;BME280;10516;51.518;9.864;2024-01-16T07:02:57;97894.25;;;0.14;83.39
20710;BME280;10516;51.518;9.864;2024-01-16T07:05:23;97902.91;;;0.21;83.74
20710;BME280;10516;51.518;9.864;2024-01-16T07:07:48;97892.84;;;0.12;83.79
20710;BME280;10516;51.518;9.864;2024-01-16T07:10:14;97894.63;;;0.18;84.03
20710;BME280;10516;51.518;9.864;2024-01-16T07:12:46;97903.75;;;0.15;84.14
20710;BME280;10516;51.518;9.864;2024-01-16T07:15:12;97902.50;;;0.18;84.16
20710;BME280;10516;51.518;9.864;2024-01-16T07:17:39;97905.53;;;0.21;83.42
20710;BME280;10516;51.518;9.864;2024-01-16T07:20:04;97899.69;;;0.19;83.83
20710;BME280;10516;51.518;9.864;2024-01-16T07:22:33;97898.50;;;0.09;83.89
20710;BME280;10516;51.518;9.864;2024-01-16T07:24:59;97902.72;;;0.16;83.90
20710;BME280;10516;51.518;9.864;2024-01-16T07:27:24;97899.09;;;0.17;83.77
20710;BME280;10516;51.518;9.864;2024-01-16T07:29:50;97909.38;;;0.19;83.60
20710;BME280;10516;51.518;9.864;2024-01-16T07:32:15;97901.50;;;0.19;83.96
20710;BME280;10516;51.518;9.864;2024-01-16T07:34:41;97910.19;;;0.19;83.04
20710;BME280;10516;51.518;9.864;2024-01-16T07:37:06;97907.13;;;0.22;83.46
20710;BME280;10516;51.518;9.864;2024-01-16T07:39:32;97913.63;;;0.20;83.76
20710;BME280;10516;51.518;9.864;2024-01-16T07:41:57;97912.97;;;0.24;83.64
20710;BME280;10516;51.518;9.864;2024-01-16T07:44:22;97907.34;;;0.21;83.68
20710;BME280;10516;51.518;9.864;2024-01-16T07:46:48;97911.59;;;0.22;83.50
20710;BME280;10516;51.518;9.864;2024-01-16T07:49:13;97912.34;;;0.29;83.81
20710;BME280;10516;51.518;9.864;2024-01-16T07:51:40;97908.75;;;0.23;83.67
20710;BME280;10516;51.518;9.864;2024-01-16T07:54:07;97907.94;;;0.29;83.76
20710;BME280;10516;51.518;9.864;2024-01-16T07:56:33;97911.00;;;0.20;83.65
20710;BME280;10516;51.518;9.864;2024-01-16T07:58:59;97917.59;;;0.29;83.72
20710;BME280;10516;51.518;9.864;2024-01-16T08:01:24;97911.97;;;0.25;83.46
20710;BME280;10516;51.518;9.864;2024-01-16T08:03:49;97911.97;;;0.25;83.97
20710;BME280;10516;51.518;9.864;2024-01-16T08:06:15;97903.50;;;0.23;84.08
20710;BME280;10516;51.518;9.864;2024-01-16T08:08:40;97912.56;;;0.27;83.98
20710;BME280;10516;51.518;9.864;2024-01-16T08:11:06;97906.34;;;0.28;84.03
20710;BME280;10516;51.518;9.864;2024-01-16T08:13:32;97909.34;;;0.25;83.27
20710;BME280;10516;51.518;9.864;2024-01-16T08:15:57;97911.34;;;0.36;83.56
20710;BME280;10516;51.518;9.864;2024-01-16T08:18:23;97910.56;;;0.29;83.75
20710;BME280;10516;51.518;9.864;2024-01-16T08:20:48;97909.56;;;0.30;83.88
20710;BME280;10516;51.518;9.864;2024-01-16T08:23:15;97922.28;;;0.20;84.06
20710;BME280;10516;51.518;9.864;2024-01-16T08:25:40;97914.41;;;0.20;84.19
20710;BME280;10516;51.518;9.864;2024-01-16T08:28:05;97912.78;;;0.32;83.59
20710;BME280;10516;51.518;9.864;2024-01-16T08:30:31;97924.88;;;0.33;83.48
20710;BME280;10516;51.518;9.864;2024-01-16T08:32:56;97929.13;;;0.28;82.98
20710;BME280;10516;51.518;9.864;2024-01-16T08:35:22;97926.47;;;0.41;83.30
20710;BME280;10516;51.518;9.864;2024-01-16T08:37:48;97927.91;;;0.30;83.66
20710;BME280;10516;51.518;9.864;2024-01-16T08:40:13;97933.75;;;0.32;83.46
20710;BME280;10516;51.518;9.864;2024-01-16T08:42:39;97932.97;;;0.25;83.80
20710;BME280;10516;51.518;9.864;2024-01-16T08:45:04;97927.09;;;0.36;83.40
20710;BME280;10516;51.518;9.864;2024-01-16T08:47:30;97924.88;;;0.33;83.23
20710;BME280;10516;51.518;9.864;2024-01-16T08:49:56;97932.94;;;0.38;83.58
20710;BME280;10516;51.518;9.864;2024-01-16T08:52:21;97916.00;;;0.34;83.61
20710;BME280;10516;51.518;9.864;2024-01-16T08:54:47;97925.06;;;0.38;83.80
20710;BME280;10516;51.518;9.864;2024-01-16T08:57:13;97923.81;;;0.47;83.22
20710;BME280;10516;51.518;9.864;2024-01-16T08:59:40;97926.50;;;0.34;83.13
20710;BME280;10516;51.518;9.864;2024-01-16T09:02:06;97941.38;;;0.47;83.89
20710;BME280;10516;51.518;9.864;2024-01-16T09:04:31;97951.66;;;0.55;83.34
20710;BME280;10516;51.518;9.864;2024-01-16T09:06:56;97949.88;;;0.49;83.27
20710;BME280;10516;51.518;9.864;2024-01-16T09:09:22;97954.91;;;0.44;83.35
20710;BME280;10516;51.518;9.864;2024-01-16T09:11:47;97961.22;;;0.36;83.72
20710;BME280;10516;51.518;9.864;2024-01-16T09:14:12;97955.75;;;0.38;83.96
20710;BME280;10516;51.518;9.864;2024-01-16T09:16:38;97950.50;;;0.38;83.76
20710;BME280;10516;51.518;9.864;2024-01-16T09:19:04;97947.47;;;0.41;83.79
20710;BME280;10516;51.518;9.864;2024-01-16T09:21:29;97953.94;;;0.38;83.69
20710;BME280;10516;51.518;9.864;2024-01-16T09:23:54;97948.69;;;0.38;84.09
20710;BME280;10516;51.518;9.864;2024-01-16T09:26:20;97945.69;;;0.35;83.75
20710;BME280;10516;51.518;9.864;2024-01-16T09:28:46;97948.31;;;0.35;84.15
20710;BME280;10516;51.518;9.864;2024-01-16T09:31:11;97946.25;;;0.43;83.64
20710;BME280;10516;51.518;9.864;2024-01-16T09:33:36;97952.09;;;0.45;83.97
20710;BME280;10516;51.518;9.864;2024-01-16T09:36:02;97953.50;;;0.54;83.80
20710;BME280;10516;51.518;9.864;2024-01-16T09:38:27;97956.72;;;0.56;83.41
20710;BME280;10516;51.518;9.864;2024-01-16T09:40:53;97959.09;;;0.64;83.26
20710;BME280;10516;51.518;9.864;2024-01-16T09:43:22;97955.91;;;0.56;82.95
20710;BME280;10516;51.518;9.864;2024-01-16T09:45:49;97956.31;;;0.53;83.85
20710;BME280;10516;51.518;9.864;2024-01-16T09:48:14;97945.44;;;0.49;83.69
20710;BME280;10516;51.518;9.864;2024-01-16T09:50:40;97960.75;;;0.59;83.64
20710;BME280;10516;51.518;9.864;2024-01-16T09:53:05;97961.38;;;0.54;83.86
20710;BME280;10516;51.518;9.864;2024-01-16T09:55:31;97961.16;;;0.56;83.62
20710;BME280;10516;51.518;9.864;2024-01-16T09:57:57;97942.59;;;0.44;83.79
20710;BME280;10516;51.518;9.864;2024-01-16T10:00:24;97963.81;;;0.43;83.43
20710;BME280;10516;51.518;9.864;2024-01-16T10:02:50;97960.38;;;0.36;83.83
20710;BME280;10516;51.518;9.864;2024-01-16T10:05:15;97966.41;;;0.49;83.67
20710;BME280;10516;51.518;9.864;2024-01-16T10:07:42;97963.41;;;0.46;83.81
20710;BME280;10516;51.518;9.864;2024-01-16T10:10:11;97965.00;;;0.47;83.93
20710;BME280;10516;51.518;9.864;2024-01-16T10:12:37;97959.53;;;0.55;83.67
20710;BME280;10516;51.518;9.864;2024-01-16T10:15:05;97964.19;;;0.46;84.21
20710;BME280;10516;51.518;9.864;2024-01-16T10:17:41;97965.44;;;0.37;84.05
20710;BME280;10516;51.518;9.864;2024-01-16T10:20:08;97959.19;;;0.38;83.99
20710;BME280;10516;51.518;9.864;2024-01-16T10:22:38;97962.97;;;0.49;83.67
20710;BME280;10516;51.518;9.864;2024-01-16T10:27:30;97964.41;;;0.45;84.16
20710;BME280;10516;51.518;9.864;2024-01-16T10:29:57;97961.38;;;0.54;83.42
20710;BME280;10516;51.518;9.864;2024-01-16T10:32:30;97960.31;;;0.62;83.01
20710;BME280;10516;51.518;9.864;2024-01-16T10:37:30;97957.34;;;0.52;83.54
20710;BME280;10516;51.518;9.864;2024-01-16T10:39:55;97957.94;;;0.54;83.80
20710;BME280;10516;51.518;9.864;2024-01-16T10:42:21;97959.53;;;0.55;83.31
20710;BME280;10516;51.518;9.864;2024-01-16T10:44:53;97950.28;;;0.46;83.33
20710;BME280;10516;51.518;9.864;2024-01-16T10:47:22;97949.03;;;0.48;83.36
20710;BME280;10516;51.518;9.864;2024-01-16T10:49:48;97962.16;;;0.48;83.88
20710;BME280;10516;51.518;9.864;2024-01-16T10:52:14;97952.91;;;0.46;84.11
20710;BME280;10516;51.518;9.864;2024-01-16T10:54:43;97955.53;;;0.46;83.70
20710;BME280;10516;51.518;9.864;2024-01-16T10:57:14;97959.75;;;0.53;83.58
20710;BME280;10516;51.518;9.864;2024-01-16T10:59:48;97953.91;;;0.51;83.60
20710;BME280;10516;51.518;9.864;2024-01-16T11:02:20;97948.06;;;0.43;83.14
20710;BME280;10516;51.518;9.864;2024-01-16T11:04:47;97955.31;;;0.47;84.02
20710;BME280;10516;51.518;9.864;2024-01-16T11:07:14;97959.97;;;0.52;83.31
20710;BME280;10516;51.518;9.864;2024-01-16T11:09:40;97950.69;;;0.49;83.03
20710;BME280;10516;51.518;9.864;2024-01-16T11:12:08;97952.88;;;0.59;83.07
20710;BME280;10516;51.518;9.864;2024-01-16T11:14:34;97960.97;;;0.51;83.15
20710;BME280;10516;51.518;9.864;2024-01-16T11:17:03;97959.75;;;0.47;83.37
20710;BME280;10516;51.518;9.864;2024-01-16T11:19:29;97953.91;;;0.51;83.29
20710;BME280;10516;51.518;9.864;2024-01-16T11:21:57;97949.63;;;0.57;83.11
20710;BME280;10516;51.518;9.864;2024-01-16T11:24:23;97957.13;;;0.47;82.74
20710;BME280;10516;51.518;9.864;2024-01-16T11:26:48;97959.53;;;0.55;82.98
20710;BME280;10516;51.518;9.864;2024-01-16T11:31:51;97949.00;;;0.61;82.90
20710;BME280;10516;51.518;9.864;2024-01-16T11:37:08;97957.34;;;0.52;82.92
20710;BME280;10516;51.518;9.864;2024-01-16T11:39:35;97949.84;;;0.55;82.86
20710;BME280;10516;51.518;9.864;2024-01-16T11:42:01;97946.00;;;0.58;82.72
20710;BME280;10516;51.518;9.864;2024-01-16T11:44:39;97943.78;;;0.55;82.53
20710;BME280;10516;51.518;9.864;2024-01-16T11:47:05;97937.94;;;0.46;82.71
20710;BME280;10516;51.518;9.864;2024-01-16T11:49:30;97936.34;;;0.52;82.24
20710;BME280;10516;51.518;9.864;2024-01-16T11:51:57;97926.84;;;0.44;82.22
20710;BME280;10516;51.518;9.864;2024-01-16T11:54:23;97923.63;;;0.49;82.35
20710;BME280;10516;51.518;9.864;2024-01-16T11:57:36;97922.78;;;0.55;82.19
20710;BME280;10516;51.518;9.864;2024-01-16T12:00:19;97916.59;;;0.36;81.52
20710;BME280;10516;51.518;9.864;2024-01-16T12:02:51;97922.03;;;0.48;81.88
20710;BME280;10516;51.518;9.864;2024-01-16T12:05:18;97921.84;;;0.36;81.71
20710;BME280;10516;51.518;9.864;2024-01-16T12:07:51;97913.13;;;0.42;81.97
20710;BME280;10516;51.518;9.864;2024-01-16T12:10:18;97915.75;;;0.49;81.70
20710;BME280;10516;51.518;9.864;2024-01-16T12:12:45;97920.16;;;0.48;80.88
20710;BME280;10516;51.518;9.864;2024-01-16T12:15:18;97928.25;;;0.47;80.54
20710;BME280;10516;51.518;9.864;2024-01-16T12:18:02;97913.34;;;0.47;80.42
20710;BME280;10516;51.518;9.864;2024-01-16T12:20:33;97918.38;;;0.49;80.21
20710;BME280;10516;51.518;9.864;2024-01-16T12:23:05;97920.81;;;0.37;79.32
20710;BME280;10516;51.518;9.864;2024-01-16T12:25:36;97920.78;;;0.44;79.73
20710;BME280;10516;51.518;9.864;2024-01-16T12:28:06;97925.84;;;0.52;79.65
20710;BME280;10516;51.518;9.864;2024-01-16T12:30:35;97932.69;;;0.53;79.63
20710;BME280;10516;51.518;9.864;2024-01-16T12:35:31;97926.81;;;0.57;80.62
20710;BME280;10516;51.518;9.864;2024-01-16T12:38:00;97917.91;;;0.65;80.34
20710;BME280;10516;51.518;9.864;2024-01-16T12:40:26;97922.97;;;0.60;80.00
20710;BME280;10516;51.518;9.864;2024-01-16T12:42:51;97916.28;;;0.64;80.44
20710;BME280;10516;51.518;9.864;2024-01-16T12:45:18;97918.72;;;0.65;80.37
20710;BME280;10516;51.518;9.864;2024-01-16T12:47:44;97920.34;;;0.60;80.07
20710;BME280;10516;51.518;9.864;2024-01-16T12:50:10;97907.44;;;0.58;80.43
20710;BME280;10516;51.518;9.864;2024-01-16T12:52:35;97908.22;;;0.65;80.04
20710;BME280;10516;51.518;9.864;2024-01-16T12:55:01;97909.81;;;0.66;80.24
20710;BME280;10516;51.518;9.864;2024-01-16T12:57:29;97909.81;;;0.66;80.26
20710;BME280;10516;51.518;9.864;2024-01-16T12:59:55;97903.72;;;0.72;80.44
20710;BME280;10516;51.518;9.864;2024-01-16T13:02:23;97908.59;;;0.69;80.38
20710;BME280;10516;51.518;9.864;2024-01-16T13:05:02;97900.50;;;0.70;79.96
20710;BME280;10516;51.518;9.864;2024-01-16T13:07:29;97904.94;;;0.70;79.96
20710;BME280;10516;51.518;9.864;2024-01-16T13:10:10;97901.13;;;0.66;80.38
20710;BME280;10516;51.518;9.864;2024-01-16T13:12:37;97904.56;;;0.66;79.73
20710;BME280;10516;51.518;9.864;2024-01-16T13:15:03;97896.94;;;0.58;79.76
20710;BME280;10516;51.518;9.864;2024-01-16T13:17:34;97894.28;;;0.65;79.92
20710;BME280;10516;51.518;9.864;2024-01-16T13:20:01;97890.81;;;0.71;79.84